Time;durP1;ratioP1;P1;durP2;ratioP2;P2;SDS_P1;SDS_P2;PMS_P1;PMS_P2;Temp;Humidity;BMP_temperature;BMP_pressure;BME280_temperature;BME280_humidity;BME280_pressure;Samples;Min_cycle;Max_cycle;Signal;HPM_P1;HPM_P2
2023/04/05 00:01:33;;;;;;;6.97;2.80;;;;;;;;;;5059793;27;92690;-81
2023/04/05 00:03:59;;;;;;;12.25;3.08;;;;;;;;;;5060095;27;87726;-81
2023/04/05 00:06:27;;;;;;;10.63;3.03;;;;;;;;;;5044875;27;89540;-81
2023/04/05 00:08:54;;;;;;;12.02;3.00;;;;;;;;;;5043666;28;88098;-81
2023/04/05 00:11:24;;;;;;;14.35;3.20;;;;;;;;;;5046729;27;89615;-81
2023/04/05 00:13:51;;;;;;;9.45;3.20;;;;;;;;;;5067351;27;89421;-81
2023/04/05 00:16:18;;;;;;;8.00;2.90;;;;;;;;;;5065768;27;87863;-81
2023/04/05 00:18:48;;;;;;;8.00;2.60;;;;;;;;;;5065378;27;88062;-81
2023/04/05 00:21:15;;;;;;;8.15;3.17;;;;;;;;;;5039367;27;93947;-81
2023/04/05 00:23:43;;;;;;;8.23;3.10;;;;;;;;;;5043131;27;91848;-81
2023/04/05 00:26:10;;;;;;;9.15;3.20;;;;;;;;;;5042226;27;92765;-82
2023/04/05 00:28:40;;;;;;;8.10;3.10;;;;;;;;;;5023935;28;95099;-81
2023/04/05 00:31:07;;;;;;;9.13;3.20;;;;;;;;;;5040468;27;95246;-80
2023/04/05 00:33:33;;;;;;;7.60;3.28;;;;;;;;;;5043898;27;97032;-81
2023/04/05 00:36:16;;;;;;;8.48;3.20;;;;;;;;;;5046421;27;95335;-81
2023/04/05 00:38:44;;;;;;;7.32;2.95;;;;;;;;;;5062473;27;92758;-82
2023/04/05 00:41:11;;;;;;;7.82;3.22;;;;;;;;;;5042246;27;92437;-81
2023/04/05 00:43:37;;;;;;;7.63;3.10;;;;;;;;;;5044327;27;92409;-81
2023/04/05 00:46:04;;;;;;;7.88;3.42;;;;;;;;;;5062200;27;92482;-81
2023/04/05 00:48:32;;;;;;;8.75;2.92;;;;;;;;;;5055347;27;92364;-81
2023/04/05 00:50:58;;;;;;;7.60;3.22;;;;;;;;;;5025090;27;92622;-82
2023/04/05 00:53:28;;;;;;;9.07;3.70;;;;;;;;;;5057968;27;93368;-82
2023/04/05 00:55:56;;;;;;;9.10;3.40;;;;;;;;;;5058999;27;95392;-79
2023/04/05 00:58:22;;;;;;;7.63;3.42;;;;;;;;;;5047127;27;92274;-81
2023/04/05 01:01:05;;;;;;;8.52;3.45;;;;;;;;;;5043525;27;95436;-81
2023/04/05 01:03:33;;;;;;;8.73;3.38;;;;;;;;;;5062009;27;92711;-82
2023/04/05 01:06:12;;;;;;;7.63;3.30;;;;;;;;;;5061808;27;92249;-81
2023/04/05 01:08:51;;;;;;;7.13;3.08;;;;;;;;;;5026789;27;94495;-83
2023/04/05 01:11:17;;;;;;;10.77;3.35;;;;;;;;;;5045347;27;92348;-82
2023/04/05 01:13:45;;;;;;;9.60;3.40;;;;;;;;;;5063981;27;92417;-82
2023/04/05 01:16:12;;;;;;;10.25;3.78;;;;;;;;;;5043324;27;95188;-82
2023/04/05 01:18:40;;;;;;;8.88;3.33;;;;;;;;;;5062029;27;92684;-82
2023/04/05 01:21:06;;;;;;;;;;;;;;;;;;5044892;27;95003;-81
2023/04/05 01:23:33;;;;;;;9.48;3.20;;;;;;;;;;5062299;27;106149;-81
2023/04/05 01:26:20;;;;;;;9.98;3.70;;;;;;;;;;5042964;27;93494;-81
2023/04/05 01:28:58;;;;;;;7.78;3.50;;;;;;;;;;5061512;27;92820;-82
2023/04/05 01:31:30;;;;;;;7.68;3.38;;;;;;;;;;5060472;27;92553;-82
2023/04/05 01:34:06;;;;;;;8.48;3.50;;;;;;;;;;5043511;27;94772;-82
2023/04/05 01:36:38;;;;;;;8.85;3.83;;;;;;;;;;5061059;27;92966;-82
2023/04/05 01:39:06;;;;;;;7.35;3.67;;;;;;;;;;5061851;27;91486;-80
2023/04/05 01:41:35;;;;;;;12.02;3.78;;;;;;;;;;5042033;27;99817;-81
2023/04/05 01:44:01;;;;;;;8.15;3.58;;;;;;;;;;5038791;27;92147;-80
2023/04/05 01:46:27;;;;;;;7.88;3.58;;;;;;;;;;5060007;27;94881;-80
2023/04/05 01:48:55;;;;;;;8.60;3.65;;;;;;;;;;5039400;28;92643;-80
2023/04/05 01:51:21;;;;;;;8.43;3.20;;;;;;;;;;5042045;27;92538;-79
2023/04/05 01:53:48;;;;;;;7.75;3.20;;;;;;;;;;5061252;27;92378;-79
2023/04/05 01:56:14;;;;;;;8.00;3.65;;;;;;;;;;5041805;27;95877;-79
2023/04/05 01:58:41;;;;;;;8.23;3.20;;;;;;;;;;5042723;27;92367;-79
2023/04/05 02:01:07;;;;;;;7.50;3.03;;;;;;;;;;5042148;27;94906;-79
2023/04/05 02:03:34;;;;;;;8.63;3.47;;;;;;;;;;5064558;27;92246;-79
2023/04/05 02:06:01;;;;;;;8.70;3.75;;;;;;;;;;5041892;27;98160;-79
2023/04/05 02:08:27;;;;;;;9.70;3.38;;;;;;;;;;5060610;27;92612;-80
2023/04/05 02:10:53;;;;;;;7.88;3.50;;;;;;;;;;5024521;27;94884;-79
2023/04/05 02:13:21;;;;;;;8.10;3.63;;;;;;;;;;5041224;27;94867;-81
2023/04/05 02:15:49;;;;;;;8.45;3.83;;;;;;;;;;5043011;27;93226;-80
2023/04/05 02:18:20;;;;;;;8.95;3.28;;;;;;;;;;5025677;27;92155;-81
2023/04/05 02:20:50;;;;;;;8.05;3.55;;;;;;;;;;5026121;27;94724;-80
2023/04/05 02:23:19;;;;;;;7.80;3.72;;;;;;;;;;5041758;27;92554;-80
2023/04/05 02:25:46;;;;;;;7.55;3.50;;;;;;;;;;5046007;27;92190;-80
2023/04/05 02:28:12;;;;;;;9.40;3.50;;;;;;;;;;5060694;27;92375;-80
2023/04/05 02:30:39;;;;;;;7.53;3.58;;;;;;;;;;5060580;27;92301;-80
2023/04/05 02:33:09;;;;;;;9.10;3.83;;;;;;;;;;5041683;27;95298;-80
2023/04/05 02:35:35;;;;;;;7.85;3.60;;;;;;;;;;5039568;27;97938;-80
2023/04/05 02:38:03;;;;;;;8.45;3.63;;;;;;;;;;5060831;27;92137;-80
2023/04/05 02:40:33;;;;;;;7.82;3.50;;;;;;;;;;5043029;27;92585;-81
2023/04/05 02:42:59;;;;;;;7.32;3.10;;;;;;;;;;5042122;27;94331;-81
2023/04/05 02:45:26;;;;;;;8.13;3.45;;;;;;;;;;5059750;27;92587;-80
2023/04/05 02:47:55;;;;;;;8.23;3.40;;;;;;;;;;5041910;27;95249;-79
2023/04/05 02:50:22;;;;;;;7.93;3.30;;;;;;;;;;5033952;27;92644;-80
2023/04/05 02:52:49;;;;;;;7.50;3.35;;;;;;;;;;5032088;27;93999;-81
2023/04/05 02:55:17;;;;;;;6.78;3.25;;;;;;;;;;5024338;27;95130;-80
2023/04/05 02:57:44;;;;;;;9.07;3.70;;;;;;;;;;5060194;27;92220;-81
2023/04/05 03:00:22;;;;;;;7.00;3.30;;;;;;;;;;5040218;27;94421;-81
2023/04/05 03:02:51;;;;;;;7.70;3.45;;;;;;;;;;5040895;27;93885;-80
2023/04/05 03:05:19;;;;;;;7.28;2.92;;;;;;;;;;5024256;27;92308;-79
2023/04/05 03:07:50;;;;;;;6.88;3.10;;;;;;;;;;5041781;27;94498;-79
2023/04/05 03:10:21;;;;;;;9.18;3.22;;;;;;;;;;5063106;27;92693;-80
2023/04/05 03:12:53;;;;;;;8.48;3.38;;;;;;;;;;5041491;27;92628;-80
2023/04/05 03:15:23;;;;;;;10.23;3.42;;;;;;;;;;5024275;27;93248;-80
2023/04/05 03:17:50;;;;;;;7.45;3.28;;;;;;;;;;5060342;27;91370;-80
2023/04/05 03:20:16;;;;;;;7.25;3.13;;;;;;;;;;5041419;27;93574;-79
2023/04/05 03:22:43;;;;;;;7.78;3.22;;;;;;;;;;5040967;27;94592;-82
2023/04/05 03:25:11;;;;;;;9.23;3.17;;;;;;;;;;5039198;27;97316;-81
2023/04/05 03:27:44;;;;;;;7.50;3.15;;;;;;;;;;5025661;27;96860;-82
2023/04/05 03:30:14;;;;;;;7.63;3.22;;;;;;;;;;5040895;27;93420;-82
2023/04/05 03:32:51;;;;;;;7.47;3.20;;;;;;;;;;5044256;27;93763;-80
2023/04/05 03:35:32;;;;;;;8.88;3.20;;;;;;;;;;5006708;28;99685;-81
2023/04/05 03:38:00;;;;;;;8.93;3.00;;;;;;;;;;5041406;27;93144;-80
2023/04/05 03:40:27;;;;;;;7.07;3.25;;;;;;;;;;5041196;27;94946;-81
2023/04/05 03:42:53;;;;;;;6.88;3.10;;;;;;;;;;5059442;27;93304;-80
2023/04/05 03:45:20;;;;;;;7.70;3.17;;;;;;;;;;5036724;27;92873;-81
2023/04/05 03:47:50;;;;;;;7.28;3.45;;;;;;;;;;5039388;27;92775;-81
2023/04/05 03:50:17;;;;;;;6.82;3.13;;;;;;;;;;5052519;27;95784;-81
2023/04/05 03:52:44;;;;;;;7.13;3.17;;;;;;;;;;5044159;27;92563;-81
2023/04/05 03:55:12;;;;;;;8.82;3.53;;;;;;;;;;5036104;27;93476;-81
2023/04/05 03:57:39;;;;;;;7.88;3.55;;;;;;;;;;5040872;27;92308;-81
2023/04/05 04:00:18;;;;;;;7.40;3.30;;;;;;;;;;5041266;27;94642;-81
2023/04/05 04:02:59;;;;;;;8.35;2.97;;;;;;;;;;5037423;28;94906;-82
2023/04/05 04:05:26;;;;;;;6.38;3.15;;;;;;;;;;5037348;27;92464;-81
2023/04/05 04:07:53;;;;;;;7.03;3.35;;;;;;;;;;5041362;27;92491;-80
2023/04/05 04:10:21;;;;;;;7.43;3.05;;;;;;;;;;5036950;28;95039;-81
2023/04/05 04:12:50;;;;;;;8.32;3.13;;;;;;;;;;5036908;28;92770;-80
2023/04/05 04:15:23;;;;;;;6.97;3.20;;;;;;;;;;5042750;27;94829;-80
2023/04/05 04:18:12;;;;;;;7.57;3.08;;;;;;;;;;5062235;27;92169;-80
2023/04/05 04:21:16;;;;;;;8.02;3.30;;;;;;;;;;4959133;28;92368;-81
2023/04/05 04:24:18;;;;;;;8.02;3.33;;;;;;;;;;4929880;28;93262;-81
2023/04/05 04:26:47;;;;;;;7.93;3.40;;;;;;;;;;5023594;27;92411;-82
2023/04/05 04:29:45;;;;;;;7.20;3.33;;;;;;;;;;5004759;27;97109;-81
2023/04/05 04:32:52;;;;;;;8.02;3.30;;;;;;;;;;5057811;27;95188;-81
2023/04/05 04:35:45;;;;;;;7.38;3.10;;;;;;;;;;5044583;27;93829;-82
2023/04/05 04:38:33;;;;;;;6.63;3.03;;;;;;;;;;5044077;27;92041;-82
2023/04/05 04:41:28;;;;;;;7.93;3.13;;;;;;;;;;5033514;27;94472;-81
2023/04/05 04:43:57;;;;;;;7.88;3.17;;;;;;;;;;5039357;28;95143;-81
2023/04/05 04:46:33;;;;;;;8.38;3.20;;;;;;;;;;5040718;27;92535;-80
2023/04/05 04:49:06;;;;;;;7.35;3.40;;;;;;;;;;5042724;27;92261;-80
2023/04/05 04:51:33;;;;;;;7.60;3.20;;;;;;;;;;5040748;27;95310;-81
2023/04/05 04:53:59;;;;;;;7.53;2.97;;;;;;;;;;5042742;27;95470;-80
2023/04/05 04:56:26;;;;;;;8.02;3.00;;;;;;;;;;5061615;27;92217;-81
2023/04/05 04:58:55;;;;;;;7.30;3.40;;;;;;;;;;5043319;27;94851;-82
2023/04/05 05:01:23;;;;;;;7.25;3.03;;;;;;;;;;5062143;27;92270;-82
2023/04/05 05:03:50;;;;;;;7.25;3.20;;;;;;;;;;5046305;27;92331;-82
2023/04/05 05:06:22;;;;;;;6.93;2.90;;;;;;;;;;5043224;27;95401;-81
2023/04/05 05:08:48;;;;;;;6.65;2.88;;;;;;;;;;5061943;27;94472;-82
2023/04/05 05:11:15;;;;;;;7.68;3.00;;;;;;;;;;5060679;27;95138;-82
2023/04/05 05:13:41;;;;;;;6.40;3.10;;;;;;;;;;5061314;27;92588;-82
2023/04/05 05:16:15;;;;;;;7.90;3.08;;;;;;;;;;5042606;27;92337;-83
2023/04/05 05:18:41;;;;;;;8.02;3.40;;;;;;;;;;5061287;27;92460;-83
2023/04/05 05:21:08;;;;;;;7.15;3.20;;;;;;;;;;5060261;27;93016;-82
2023/04/05 05:23:34;;;;;;;7.32;3.00;;;;;;;;;;5061037;27;92110;-83
2023/04/05 05:26:02;;;;;;;6.85;2.97;;;;;;;;;;5064025;27;92774;-82
2023/04/05 05:28:28;;;;;;;6.82;3.08;;;;;;;;;;5061430;27;92951;-82
2023/04/05 05:30:55;;;;;;;6.78;2.70;;;;;;;;;;5060872;27;92550;-81
2023/04/05 05:33:21;;;;;;;9.00;3.08;;;;;;;;;;5040633;27;95524;-82
2023/04/05 05:35:48;;;;;;;8.75;3.33;;;;;;;;;;5061082;27;92273;-80
2023/04/05 05:38:15;;;;;;;7.82;3.13;;;;;;;;;;5061518;27;93696;-81
2023/04/05 05:40:42;;;;;;;8.23;2.92;;;;;;;;;;5060508;27;92721;-80
2023/04/05 05:43:11;;;;;;;8.65;3.10;;;;;;;;;;5042131;27;92525;-80
2023/04/05 05:45:38;;;;;;;7.25;3.22;;;;;;;;;;5063817;27;92939;-79
2023/04/05 05:48:04;;;;;;;8.18;3.55;;;;;;;;;;5061017;27;92352;-79
2023/04/05 05:50:31;;;;;;;7.35;3.25;;;;;;;;;;5060162;27;93026;-80
2023/04/05 05:52:58;;;;;;;7.63;3.08;;;;;;;;;;5042216;27;93714;-79
2023/04/05 05:55:27;;;;;;;7.47;3.10;;;;;;;;;;5040775;27;92207;-79
2023/04/05 05:57:53;;;;;;;8.27;3.15;;;;;;;;;;5059105;27;94617;-80
2023/04/05 06:00:20;;;;;;;7.22;2.95;;;;;;;;;;5060197;27;92693;-79
2023/04/05 06:02:46;;;;;;;7.95;3.17;;;;;;;;;;5060477;27;92251;-78
2023/04/05 06:05:13;;;;;;;7.85;3.10;;;;;;;;;;5059449;27;92459;-78
2023/04/05 06:07:40;;;;;;;7.50;3.15;;;;;;;;;;5064925;27;92688;-80
2023/04/05 06:10:07;;;;;;;8.52;3.25;;;;;;;;;;5041977;27;95070;-80
2023/04/05 06:12:33;;;;;;;7.38;2.83;;;;;;;;;;5060156;27;92782;-79
2023/04/05 06:15:00;;;;;;;9.10;3.22;;;;;;;;;;5025589;27;91926;-79
2023/04/05 06:17:27;;;;;;;8.35;3.45;;;;;;;;;;5059458;27;92036;-79
2023/04/05 06:19:53;;;;;;;6.90;2.83;;;;;;;;;;5059955;27;92511;-80
2023/04/05 06:22:21;;;;;;;6.57;3.17;;;;;;;;;;5058688;27;95126;-80
2023/04/05 06:24:48;;;;;;;7.68;2.92;;;;;;;;;;5060269;27;95193;-81
2023/04/05 06:27:15;;;;;;;9.65;3.90;;;;;;;;;;5058012;27;92621;-81
2023/04/05 06:29:41;;;;;;;15.10;4.45;;;;;;;;;;5063635;27;92326;-82
2023/04/05 06:32:08;;;;;;;9.82;4.13;;;;;;;;;;5059964;27;92708;-83
2023/04/05 06:34:34;;;;;;;11.05;4.10;;;;;;;;;;5041829;27;92440;-83
2023/04/05 06:37:01;;;;;;;8.95;4.25;;;;;;;;;;5059300;27;94008;-83
2023/04/05 06:39:28;;;;;;;14.55;4.50;;;;;;;;;;5041135;27;93833;-84
2023/04/05 06:41:55;;;;;;;12.10;4.70;;;;;;;;;;5041668;27;92326;-82
2023/04/05 06:44:27;;;;;;;9.95;4.90;;;;;;;;;;5042969;27;92470;-82
2023/04/05 06:46:53;;;;;;;10.10;4.60;;;;;;;;;;5058498;27;94993;-82
2023/04/05 06:49:20;;;;;;;9.88;4.47;;;;;;;;;;5056077;27;92007;-82
2023/04/05 06:51:46;;;;;;;9.82;4.50;;;;;;;;;;5058657;27;94839;-82
2023/04/05 06:54:13;;;;;;;10.43;4.80;;;;;;;;;;5060190;27;92210;-82
2023/04/05 06:56:40;;;;;;;9.15;4.68;;;;;;;;;;5021923;28;93319;-83
2023/04/05 06:59:07;;;;;;;9.93;4.45;;;;;;;;;;5035995;27;93060;-81
2023/04/05 07:01:34;;;;;;;12.10;5.38;;;;;;;;;;5035773;27;92140;-81
2023/04/05 07:04:01;;;;;;;;;;;;;;;;;;5040187;27;94090;-82
2023/04/05 07:06:27;;;;;;;9.45;5.00;;;;;;;;;;5040803;27;97490;-83
2023/04/05 07:08:54;;;;;;;10.88;5.22;;;;;;;;;;5040889;27;93109;-83
2023/04/05 07:11:21;;;;;;;12.13;5.68;;;;;;;;;;5036905;27;94690;-82
2023/04/05 07:13:47;;;;;;;12.45;5.32;;;;;;;;;;5042571;27;93530;-83
2023/04/05 07:16:14;;;;;;;9.80;4.90;;;;;;;;;;5039086;27;92443;-83
2023/04/05 07:18:41;;;;;;;12.57;5.03;;;;;;;;;;5041045;27;93163;-84
2023/04/05 07:21:07;;;;;;;12.27;5.50;;;;;;;;;;5039159;27;92495;-81
2023/04/05 07:23:34;;;;;;;13.25;5.75;;;;;;;;;;5039129;27;92578;-81
2023/04/05 07:26:04;;;;;;;13.15;5.18;;;;;;;;;;5039295;27;92787;-80
2023/04/05 07:28:31;;;;;;;11.32;5.47;;;;;;;;;;5038380;28;91530;-80
2023/04/05 07:30:58;;;;;;;;;;;;;;;;;;5039948;27;92523;-81
2023/04/05 07:33:27;;;;;;;14.75;5.57;;;;;;;;;;5037887;27;116762;-80
2023/04/05 07:35:54;;;;;;;11.82;5.72;;;;;;;;;;5040381;27;94805;-80
2023/04/05 07:38:20;;;;;;;10.82;5.18;;;;;;;;;;5036706;28;95399;-81
2023/04/05 07:40:50;;;;;;;14.02;5.50;;;;;;;;;;5037641;27;92530;-80
2023/04/05 07:43:17;;;;;;;15.18;5.65;;;;;;;;;;5029600;27;92416;-80
2023/04/05 07:45:44;;;;;;;13.38;4.80;;;;;;;;;;5037231;28;92622;-81
2023/04/05 07:48:11;;;;;;;14.15;4.15;;;;;;;;;;5038058;27;93278;-81
2023/04/05 07:50:46;;;;;;;10.30;3.70;;;;;;;;;;5033589;27;93367;-82
2023/04/05 07:53:13;;;;;;;10.95;3.35;;;;;;;;;;5040461;27;94476;-80
2023/04/05 07:55:40;;;;;;;10.18;3.17;;;;;;;;;;5049386;27;92101;-81
2023/04/05 07:58:06;;;;;;;9.38;3.42;;;;;;;;;;5062490;27;92689;-80
2023/04/05 08:00:33;;;;;;;8.52;2.95;;;;;;;;;;5041997;27;95042;-80
2023/04/05 08:02:59;;;;;;;9.27;3.00;;;;;;;;;;5061376;27;94814;-80
2023/04/05 08:05:28;;;;;;;9.00;2.90;;;;;;;;;;5041779;27;95149;-81
2023/04/05 08:07:56;;;;;;;7.80;2.72;;;;;;;;;;5062508;27;92232;-80
2023/04/05 08:10:23;;;;;;;9.60;2.90;;;;;;;;;;5048688;27;94698;-80
2023/04/05 08:12:50;;;;;;;8.32;3.00;;;;;;;;;;5060710;27;92623;-80
2023/04/05 08:15:16;;;;;;;8.25;2.80;;;;;;;;;;5060765;27;92413;-80
2023/04/05 08:17:43;;;;;;;8.70;2.70;;;;;;;;;;5065181;27;92853;-79
2023/04/05 08:20:10;;;;;;;8.00;2.90;;;;;;;;;;5061858;27;92026;-80
2023/04/05 08:22:36;;;;;;;7.80;2.63;;;;;;;;;;5034143;27;95058;-79
2023/04/05 08:25:03;;;;;;;8.35;2.75;;;;;;;;;;5022372;27;98371;-80
2023/04/05 08:27:29;;;;;;;7.00;2.63;;;;;;;;;;5042374;27;92521;-82
2023/04/05 08:29:56;;;;;;;9.13;2.60;;;;;;;;;;5040911;27;92330;-81
2023/04/05 08:32:22;;;;;;;6.80;2.40;;;;;;;;;;5025094;27;95824;-80
2023/04/05 08:34:49;;;;;;;7.00;2.58;;;;;;;;;;5042382;27;91981;-79
2023/04/05 08:37:15;;;;;;;8.73;2.60;;;;;;;;;;5021876;27;95177;-80
2023/04/05 08:39:41;;;;;;;6.13;2.25;;;;;;;;;;5048526;27;93072;-80
2023/04/05 08:42:18;;;;;;;6.75;2.35;;;;;;;;;;5043189;27;92791;-81
2023/04/05 08:44:45;;;;;;;7.53;2.45;;;;;;;;;;5039965;27;93986;-80
2023/04/05 08:47:17;;;;;;;5.80;2.17;;;;;;;;;;5040646;27;92574;-79
2023/04/05 08:49:44;;;;;;;6.88;2.40;;;;;;;;;;5035763;27;94767;-80
2023/04/05 08:52:11;;;;;;;6.45;2.30;;;;;;;;;;5047538;27;92899;-77
2023/04/05 08:54:37;;;;;;;5.13;2.40;;;;;;;;;;5043447;27;93059;-79
2023/04/05 08:57:06;;;;;;;7.28;2.70;;;;;;;;;;5042345;27;95507;-79
2023/04/05 08:59:36;;;;;;;6.60;2.67;;;;;;;;;;5040069;27;97708;-80
2023/04/05 09:02:05;;;;;;;6.53;2.60;;;;;;;;;;5041855;27;93205;-80
2023/04/05 09:04:34;;;;;;;6.25;2.40;;;;;;;;;;5040934;27;92734;-80
2023/04/05 09:07:05;;;;;;;5.88;2.30;;;;;;;;;;5041312;27;91347;-80
2023/04/05 09:09:33;;;;;;;5.47;2.33;;;;;;;;;;5033775;27;96429;-80
2023/04/05 09:12:02;;;;;;;6.35;2.30;;;;;;;;;;5039251;27;93368;-80
2023/04/05 09:14:29;;;;;;;7.20;2.50;;;;;;;;;;5037693;28;94606;-80
2023/04/05 09:16:56;;;;;;;4.97;2.20;;;;;;;;;;5039170;27;97404;-80
2023/04/05 09:19:22;;;;;;;6.07;2.28;;;;;;;;;;5059270;27;93691;-78
2023/04/05 09:22:05;;;;;;;5.22;2.20;;;;;;;;;;5043015;27;92449;-80
2023/04/05 09:24:42;;;;;;;6.07;2.40;;;;;;;;;;5062681;27;92757;-80
2023/04/05 09:27:10;;;;;;;6.18;2.10;;;;;;;;;;5024405;27;93810;-80
2023/04/05 09:29:38;;;;;;;4.60;1.88;;;;;;;;;;5042188;27;92482;-80
2023/04/05 09:32:06;;;;;;;8.15;2.08;;;;;;;;;;5028461;27;94664;-81
2023/04/05 09:34:35;;;;;;;6.38;2.10;;;;;;;;;;5042500;27;92770;-79
2023/04/05 09:37:10;;;;;;;3.63;1.65;;;;;;;;;;5062096;27;92849;-79
2023/04/05 09:39:36;;;;;;;5.20;1.52;;;;;;;;;;5014595;28;99416;-79
2023/04/05 09:42:14;;;;;;;5.07;1.50;;;;;;;;;;5041543;27;92134;-79
2023/04/05 09:45:03;;;;;;;4.70;1.80;;;;;;;;;;5042034;27;93105;-79
2023/04/05 09:47:35;;;;;;;5.45;1.83;;;;;;;;;;5045815;27;100018;-79
2023/04/05 09:50:14;;;;;;;3.85;1.60;;;;;;;;;;5035962;28;94949;-79
2023/04/05 09:52:41;;;;;;;4.60;1.55;;;;;;;;;;5054546;27;93030;-79
2023/04/05 09:55:08;;;;;;;4.00;1.58;;;;;;;;;;5047601;27;92420;-78
2023/04/05 09:57:36;;;;;;;3.83;1.60;;;;;;;;;;5042724;27;93488;-79
2023/04/05 10:00:04;;;;;;;3.75;1.50;;;;;;;;;;5061439;27;92626;-79
2023/04/05 10:02:40;;;;;;;4.70;1.60;;;;;;;;;;5060497;27;93253;-79
2023/04/05 10:05:14;;;;;;;4.57;1.70;;;;;;;;;;5059753;27;94756;-78
2023/04/05 10:07:41;;;;;;;3.47;1.55;;;;;;;;;;5065777;27;94180;-79
2023/04/05 10:10:08;;;;;;;;;;;;;;;;;;5061609;27;92677;-80
2023/04/05 10:12:36;;;;;;;4.88;1.52;;;;;;;;;;5060456;27;119358;-79
2023/04/05 10:15:04;;;;;;;3.65;1.55;;;;;;;;;;5043154;27;92426;-79
2023/04/05 10:17:36;;;;;;;3.00;1.40;;;;;;;;;;5041733;27;93089;-79
2023/04/05 10:20:08;;;;;;;3.72;1.50;;;;;;;;;;5042579;27;92902;-80
2023/04/05 10:22:39;;;;;;;4.18;1.50;;;;;;;;;;5042967;27;91598;-79
2023/04/05 10:25:26;;;;;;;4.13;1.42;;;;;;;;;;5060567;27;95114;-82
2023/04/05 10:27:57;;;;;;;5.55;1.65;;;;;;;;;;5011555;28;97771;-81
2023/04/05 10:30:24;;;;;;;3.05;1.40;;;;;;;;;;5030245;28;94653;-83
2023/04/05 10:32:50;;;;;;;;;;;;;;;;;;5048091;27;95127;-81
2023/04/05 10:35:26;;;;;;;4.00;1.50;;;;;;;;;;5020563;28;94057;-82
2023/04/05 10:38:08;;;;;;;3.38;1.50;;;;;;;;;;5039326;27;93748;-82
2023/04/05 10:40:35;;;;;;;3.42;1.30;;;;;;;;;;5037935;27;92605;-78
2023/04/05 10:43:02;;;;;;;2.92;1.50;;;;;;;;;;5027465;28;92736;-81
2023/04/05 10:45:30;;;;;;;2.90;1.27;;;;;;;;;;5041203;27;92295;-80
2023/04/05 10:48:24;;;;;;;4.03;1.50;;;;;;;;;;5039930;27;92176;-80
2023/04/05 10:50:50;;;;;;;6.03;1.58;;;;;;;;;;4993536;28;92603;-82
2023/04/05 10:53:18;;;;;;;7.32;1.80;;;;;;;;;;5026473;27;94711;-79
2023/04/05 10:55:45;;;;;;;8.55;1.60;;;;;;;;;;5016441;28;95211;-79
2023/04/05 10:58:13;;;;;;;8.38;1.95;;;;;;;;;;5030675;28;96002;-79
2023/04/05 11:00:40;;;;;;;6.60;1.88;;;;;;;;;;5038081;27;92702;-79
2023/04/05 11:03:07;;;;;;;4.82;1.70;;;;;;;;;;5020878;27;93813;-78
2023/04/05 11:05:35;;;;;;;5.63;1.65;;;;;;;;;;5038952;27;92811;-79
2023/04/05 11:08:06;;;;;;;5.25;1.55;;;;;;;;;;5039871;27;92786;-79
2023/04/05 11:10:36;;;;;;;5.63;1.70;;;;;;;;;;5037199;27;92220;-78
2023/04/05 11:13:03;;;;;;;5.45;1.50;;;;;;;;;;5038778;27;91510;-79
2023/04/05 11:15:31;;;;;;;;;;;;;;;;;;5042771;27;96009;-79
2023/04/05 11:18:00;;;;;;;6.97;1.60;;;;;;;;;;5059934;27;121703;-79
2023/04/05 11:20:38;;;;;;;3.70;1.40;;;;;;;;;;5039329;27;96364;-79
2023/04/05 11:23:04;;;;;;;3.17;1.40;;;;;;;;;;5060178;27;92317;-79
2023/04/05 11:25:36;;;;;;;3.38;1.55;;;;;;;;;;5061724;27;98836;-79
2023/04/05 11:28:04;;;;;;;4.70;1.48;;;;;;;;;;5054950;27;94218;-79
2023/04/05 11:30:47;;;;;;;4.97;1.75;;;;;;;;;;5040802;27;92448;-79
2023/04/05 11:33:32;;;;;;;4.80;1.40;;;;;;;;;;5035930;28;94918;-79
2023/04/05 11:35:59;;;;;;;4.35;1.60;;;;;;;;;;5031500;27;92729;-79
2023/04/05 11:38:25;;;;;;;4.75;1.60;;;;;;;;;;5046178;27;91484;-80
2023/04/05 11:41:04;;;;;;;3.72;1.27;;;;;;;;;;5042399;27;92795;-79
2023/04/05 11:43:33;;;;;;;6.22;1.40;;;;;;;;;;5026807;27;92379;-79
2023/04/05 11:46:02;;;;;;;3.97;1.58;;;;;;;;;;5061565;27;94680;-79
2023/04/05 11:48:28;;;;;;;4.68;1.50;;;;;;;;;;5044461;27;92576;-79
2023/04/05 11:50:56;;;;;;;5.25;1.30;;;;;;;;;;5062423;27;92154;-79
2023/04/05 11:53:22;;;;;;;4.72;1.50;;;;;;;;;;5041564;27;95625;-78
2023/04/05 11:55:54;;;;;;;4.30;1.40;;;;;;;;;;5035935;27;93073;-78
2023/04/05 11:58:21;;;;;;;3.72;1.45;;;;;;;;;;5057399;27;92474;-79
2023/04/05 12:01:01;;;;;;;5.80;1.40;;;;;;;;;;5047145;27;92561;-79
2023/04/05 12:03:28;;;;;;;3.10;1.30;;;;;;;;;;5062567;27;91632;-79
2023/04/05 12:05:56;;;;;;;4.10;1.40;;;;;;;;;;5062377;27;92329;-79
2023/04/05 12:08:23;;;;;;;4.18;1.40;;;;;;;;;;5064131;27;93307;-79
2023/04/05 12:10:56;;;;;;;3.05;1.30;;;;;;;;;;5039163;27;94703;-79
2023/04/05 12:13:30;;;;;;;3.00;1.25;;;;;;;;;;5041620;27;94859;-80
2023/04/05 12:16:01;;;;;;;3.63;1.30;;;;;;;;;;5041401;27;92688;-79
2023/04/05 12:18:29;;;;;;;3.80;1.40;;;;;;;;;;5042539;27;92692;-79
2023/04/05 12:20:56;;;;;;;3.05;1.17;;;;;;;;;;5038717;27;93349;-79
2023/04/05 12:23:23;;;;;;;3.22;1.20;;;;;;;;;;5027076;28;92592;-79
2023/04/05 12:25:50;;;;;;;2.65;1.20;;;;;;;;;;5048634;27;93082;-78
2023/04/05 12:28:16;;;;;;;4.22;1.23;;;;;;;;;;5024156;28;95041;-78
2023/04/05 12:30:48;;;;;;;2.55;1.20;;;;;;;;;;5045047;27;92490;-78
2023/04/05 12:33:15;;;;;;;2.83;1.20;;;;;;;;;;5040814;27;92865;-78
2023/04/05 12:35:41;;;;;;;2.75;1.30;;;;;;;;;;5042597;27;95694;-78
2023/04/05 12:38:09;;;;;;;3.72;1.30;;;;;;;;;;5027933;27;92907;-80
2023/04/05 12:40:36;;;;;;;3.33;1.10;;;;;;;;;;5040920;27;92320;-81
2023/04/05 12:43:06;;;;;;;4.30;1.30;;;;;;;;;;5044789;27;93259;-79
2023/04/05 12:45:38;;;;;;;5.18;1.50;;;;;;;;;;5040836;27;97835;-79
2023/04/05 12:48:11;;;;;;;3.47;1.30;;;;;;;;;;5041504;27;93568;-76
2023/04/05 12:50:45;;;;;;;5.63;1.40;;;;;;;;;;5035345;27;93195;-76
2023/04/05 12:53:19;;;;;;;6.43;1.35;;;;;;;;;;5035557;27;92665;-77
2023/04/05 12:55:53;;;;;;;5.35;1.50;;;;;;;;;;5038267;27;94086;-77
2023/04/05 12:58:20;;;;;;;6.05;1.50;;;;;;;;;;5058179;27;92192;-77
2023/04/05 13:00:46;;;;;;;7.47;1.40;;;;;;;;;;5040152;27;94732;-78
2023/04/05 13:03:18;;;;;;;8.48;1.35;;;;;;;;;;5057395;27;92915;-78
2023/04/05 13:05:49;;;;;;;6.75;1.70;;;;;;;;;;5039476;27;92784;-77
2023/04/05 13:08:17;;;;;;;4.53;1.40;;;;;;;;;;5059747;27;95329;-78
2023/04/05 13:10:47;;;;;;;6.53;1.40;;;;;;;;;;5043080;27;92059;-77
2023/04/05 13:13:17;;;;;;;4.68;1.20;;;;;;;;;;5023433;27;94724;-77
2023/04/05 13:15:44;;;;;;;2.85;1.20;;;;;;;;;;5043917;27;92484;-77
2023/04/05 13:18:13;;;;;;;4.22;1.20;;;;;;;;;;5055376;27;92535;-78
2023/04/05 13:20:43;;;;;;;6.30;1.30;;;;;;;;;;5039316;27;92119;-77
2023/04/05 13:23:10;;;;;;;3.80;1.30;;;;;;;;;;5055473;27;93782;-78
2023/04/05 13:25:38;;;;;;;4.90;1.25;;;;;;;;;;5039736;27;94747;-78
2023/04/05 13:28:05;;;;;;;4.72;1.25;;;;;;;;;;5053859;27;95342;-78
2023/04/05 13:30:31;;;;;;;3.83;1.08;;;;;;;;;;5051603;27;94499;-78
2023/04/05 13:32:58;;;;;;;4.22;1.10;;;;;;;;;;5059893;27;92690;-77
2023/04/05 13:35:24;;;;;;;4.05;1.10;;;;;;;;;;5036523;27;93171;-77
2023/04/05 13:37:51;;;;;;;3.97;1.00;;;;;;;;;;5037523;27;93584;-77
2023/04/05 13:40:17;;;;;;;5.22;1.10;;;;;;;;;;5030284;28;94253;-76
2023/04/05 13:42:44;;;;;;;5.45;1.30;;;;;;;;;;5034096;27;91948;-77
2023/04/05 13:45:11;;;;;;;;;;;;;;;;;;5038182;27;93913;-77
2023/04/05 13:47:37;;;;;;;2.58;1.00;;;;;;;;;;5039808;27;112313;-77
2023/04/05 13:50:04;;;;;;;2.35;1.10;;;;;;;;;;5051217;27;95354;-77
2023/04/05 13:52:31;;;;;;;3.10;1.05;;;;;;;;;;5037000;27;95818;-77
2023/04/05 13:54:57;;;;;;;3.85;1.00;;;;;;;;;;5039189;27;92625;-78
2023/04/05 13:57:29;;;;;;;2.25;1.00;;;;;;;;;;5040854;27;92296;-78
2023/04/05 13:59:55;;;;;;;2.33;1.00;;;;;;;;;;5051410;27;92737;-77
2023/04/05 14:02:24;;;;;;;2.70;0.90;;;;;;;;;;5052285;27;93514;-79
2023/04/05 14:04:51;;;;;;;2.25;1.00;;;;;;;;;;5044891;27;92094;-77
2023/04/05 14:07:19;;;;;;;3.13;1.10;;;;;;;;;;5034506;27;94093;-76
2023/04/05 14:09:45;;;;;;;5.80;1.40;;;;;;;;;;5040991;27;93652;-77
2023/04/05 14:12:12;;;;;;;;;;;;;;;;;;5034024;28;92784;-77
2023/04/05 14:14:39;;;;;;;3.28;1.30;;;;;;;;;;5024368;27;96138;-76
2023/04/05 14:17:06;;;;;;;3.90;1.20;;;;;;;;;;5006457;28;92202;-77
2023/04/05 14:19:33;;;;;;;;;;;;;;;;;;5038206;28;98156;-76
2023/04/05 14:21:59;;;;;;;3.55;1.30;;;;;;;;;;5036397;27;102664;-78
2023/04/05 14:24:26;;;;;;;4.18;1.40;;;;;;;;;;5039128;27;92879;-77
2023/04/05 14:26:52;;;;;;;2.95;1.10;;;;;;;;;;5037939;27;92500;-75
2023/04/05 14:29:19;;;;;;;5.72;1.40;;;;;;;;;;5054615;27;92668;-76
2023/04/05 14:31:45;;;;;;;5.35;1.40;;;;;;;;;;5039567;27;91656;-77
2023/04/05 14:34:12;;;;;;;3.30;1.30;;;;;;;;;;5029474;28;94520;-77
2023/04/05 14:36:39;;;;;;;3.50;1.30;;;;;;;;;;5041705;27;92064;-77
2023/04/05 14:39:05;;;;;;;2.95;1.30;;;;;;;;;;5051692;27;94432;-77
2023/04/05 14:41:32;;;;;;;3.47;1.20;;;;;;;;;;5036984;27;97450;-76
2023/04/05 14:43:58;;;;;;;3.60;1.20;;;;;;;;;;5035104;27;94053;-76
2023/04/05 14:46:25;;;;;;;4.88;1.50;;;;;;;;;;5042832;27;93147;-76
2023/04/05 14:48:52;;;;;;;3.10;1.30;;;;;;;;;;5050027;27;95421;-77
2023/04/05 14:51:18;;;;;;;2.70;1.20;;;;;;;;;;5051866;27;93236;-77
2023/04/05 14:53:45;;;;;;;3.15;1.27;;;;;;;;;;5029189;28;94045;-77
2023/04/05 14:56:12;;;;;;;6.55;1.30;;;;;;;;;;5035997;27;91837;-77